sensor_id;sensor_type;location;lat;lon;timestamp;P1;durP1;ratioP1;P2;durP2;ratioP2
28605;SDS011;46498;49.968;7.754;2023-07-31T00:01:38;8.68;;;2.20;;
28605;SDS011;46498;49.968;7.754;2023-07-31T00:06:39;6.72;;;2.08;;
28605;SDS011;46498;49.968;7.754;2023-07-31T00:11:40;10.13;;;2.72;;
28605;SDS011;46498;49.968;7.754;2023-07-31T00:16:41;12.57;;;2.40;;
28605;SDS011;46498;49.968;7.754;2023-07-31T00:21:43;8.45;;;2.72;;
28605;SDS011;46498;49.968;7.754;2023-07-31T00:26:45;7.60;;;3.35;;
28605;SDS011;46498;49.968;7.754;2023-07-31T00:31:45;8.68;;;2.45;;
28605;SDS011;46498;49.968;7.754;2023-07-31T00:36:46;9.50;;;1.90;;
28605;SDS011;46498;49.968;7.754;2023-07-31T00:41:50;11.85;;;2.85;;
28605;SDS011;46498;49.968;7.754;2023-07-31T00:46:51;8.50;;;2.40;;
28605;SDS011;46498;49.968;7.754;2023-07-31T00:51:53;8.20;;;3.00;;
28605;SDS011;46498;49.968;7.754;2023-07-31T00:56:54;5.47;;;2.60;;
28605;SDS011;46498;49.968;7.754;2023-07-31T01:01:56;7.78;;;2.50;;
28605;SDS011;46498;49.968;7.754;2023-07-31T01:13:49;10.38;;;2.50;;
28605;SDS011;46498;49.968;7.754;2023-07-31T01:18:51;6.30;;;2.70;;
28605;SDS011;46498;49.968;7.754;2023-07-31T01:29:26;8.27;;;2.42;;
28605;SDS011;46498;49.968;7.754;2023-07-31T01:34:36;9.65;;;2.70;;
28605;SDS011;46498;49.968;7.754;2023-07-31T01:39:37;6.62;;;2.80;;
28605;SDS011;46498;49.968;7.754;2023-07-31T01:44:38;10.82;;;3.05;;
28605;SDS011;46498;49.968;7.754;2023-07-31T01:49:39;6.97;;;2.47;;
28605;SDS011;46498;49.968;7.754;2023-07-31T01:54:40;8.32;;;2.70;;
28605;SDS011;46498;49.968;7.754;2023-07-31T01:59:42;7.68;;;2.42;;
28605;SDS011;46498;49.968;7.754;2023-07-31T02:04:43;5.20;;;2.28;;
28605;SDS011;46498;49.968;7.754;2023-07-31T02:09:44;5.18;;;2.20;;
28605;SDS011;46498;49.968;7.754;2023-07-31T02:14:44;8.45;;;2.28;;
28605;SDS011;46498;49.968;7.754;2023-07-31T02:19:45;6.05;;;2.20;;
28605;SDS011;46498;49.968;7.754;2023-07-31T02:24:46;9.40;;;2.62;;
28605;SDS011;46498;49.968;7.754;2023-07-31T02:29:47;6.60;;;2.75;;
28605;SDS011;46498;49.968;7.754;2023-07-31T02:34:48;9.13;;;2.80;;
28605;SDS011;46498;49.968;7.754;2023-07-31T02:39:51;9.20;;;3.12;;
28605;SDS011;46498;49.968;7.754;2023-07-31T02:44:51;9.88;;;3.17;;
28605;SDS011;46498;49.968;7.754;2023-07-31T02:49:56;7.07;;;2.50;;
28605;SDS011;46498;49.968;7.754;2023-07-31T02:54:57;10.63;;;2.40;;
28605;SDS011;46498;49.968;7.754;2023-07-31T02:59:59;9.95;;;3.15;;
28605;SDS011;46498;49.968;7.754;2023-07-31T03:05:00;7.32;;;2.75;;
28605;SDS011;46498;49.968;7.754;2023-07-31T03:10:01;14.40;;;2.78;;
28605;SDS011;46498;49.968;7.754;2023-07-31T03:15:02;9.80;;;2.80;;
28605;SDS011;46498;49.968;7.754;2023-07-31T03:20:04;7.85;;;2.75;;
28605;SDS011;46498;49.968;7.754;2023-07-31T03:25:05;7.20;;;2.80;;
28605;SDS011;46498;49.968;7.754;2023-07-31T03:30:07;7.30;;;2.87;;
28605;SDS011;46498;49.968;7.754;2023-07-31T03:35:08;10.48;;;2.80;;
28605;SDS011;46498;49.968;7.754;2023-07-31T03:40:09;6.12;;;2.70;;
28605;SDS011;46498;49.968;7.754;2023-07-31T03:45:10;10.20;;;2.97;;
28605;SDS011;46498;49.968;7.754;2023-07-31T03:50:11;9.43;;;2.78;;
28605;SDS011;46498;49.968;7.754;2023-07-31T03:55:13;6.53;;;3.37;;
28605;SDS011;46498;49.968;7.754;2023-07-31T04:00:14;9.80;;;3.20;;
28605;SDS011;46498;49.968;7.754;2023-07-31T04:05:15;12.85;;;4.12;;
28605;SDS011;46498;49.968;7.754;2023-07-31T04:10:17;9.20;;;3.70;;
28605;SDS011;46498;49.968;7.754;2023-07-31T04:15:18;6.50;;;2.75;;
28605;SDS011;46498;49.968;7.754;2023-07-31T04:20:18;12.45;;;3.03;;
28605;SDS011;46498;49.968;7.754;2023-07-31T04:25:19;7.82;;;2.83;;
28605;SDS011;46498;49.968;7.754;2023-07-31T04:30:20;9.52;;;3.42;;
28605;SDS011;46498;49.968;7.754;2023-07-31T04:35:21;9.27;;;3.10;;
28605;SDS011;46498;49.968;7.754;2023-07-31T04:40:22;12.43;;;3.53;;
28605;SDS011;46498;49.968;7.754;2023-07-31T04:45:23;6.05;;;2.72;;
28605;SDS011;46498;49.968;7.754;2023-07-31T04:50:24;5.00;;;2.50;;
28605;SDS011;46498;49.968;7.754;2023-07-31T04:55:24;11.00;;;4.05;;
28605;SDS011;46498;49.968;7.754;2023-07-31T05:00:25;8.57;;;3.03;;
28605;SDS011;46498;49.968;7.754;2023-07-31T05:05:26;10.00;;;3.45;;
28605;SDS011;46498;49.968;7.754;2023-07-31T05:10:27;11.05;;;3.47;;
28605;SDS011;46498;49.968;7.754;2023-07-31T05:15:28;8.02;;;3.00;;
28605;SDS011;46498;49.968;7.754;2023-07-31T05:20:29;9.65;;;4.18;;
28605;SDS011;46498;49.968;7.754;2023-07-31T05:25:30;12.93;;;3.33;;
28605;SDS011;46498;49.968;7.754;2023-07-31T05:30:31;8.88;;;3.30;;
28605;SDS011;46498;49.968;7.754;2023-07-31T05:35:31;10.82;;;3.45;;
28605;SDS011;46498;49.968;7.754;2023-07-31T05:40:33;11.60;;;3.65;;
28605;SDS011;46498;49.968;7.754;2023-07-31T05:45:34;7.87;;;2.97;;
28605;SDS011;46498;49.968;7.754;2023-07-31T05:50:34;9.80;;;3.20;;
28605;SDS011;46498;49.968;7.754;2023-07-31T05:55:35;8.32;;;2.78;;
28605;SDS011;46498;49.968;7.754;2023-07-31T06:00:36;12.32;;;3.50;;
28605;SDS011;46498;49.968;7.754;2023-07-31T06:05:37;10.77;;;3.62;;
28605;SDS011;46498;49.968;7.754;2023-07-31T06:10:38;11.52;;;3.03;;
28605;SDS011;46498;49.968;7.754;2023-07-31T06:15:39;15.55;;;3.50;;
28605;SDS011;46498;49.968;7.754;2023-07-31T06:20:40;10.02;;;3.15;;
28605;SDS011;46498;49.968;7.754;2023-07-31T06:25:41;11.27;;;3.25;;
28605;SDS011;46498;49.968;7.754;2023-07-31T06:30:42;11.25;;;2.95;;
28605;SDS011;46498;49.968;7.754;2023-07-31T06:35:43;7.05;;;3.03;;
28605;SDS011;46498;49.968;7.754;2023-07-31T06:40:44;7.75;;;2.92;;
28605;SDS011;46498;49.968;7.754;2023-07-31T06:45:45;7.90;;;2.78;;
28605;SDS011;46498;49.968;7.754;2023-07-31T06:50:46;9.00;;;2.80;;
28605;SDS011;46498;49.968;7.754;2023-07-31T06:55:47;9.32;;;3.20;;
28605;SDS011;46498;49.968;7.754;2023-07-31T07:00:48;10.20;;;3.17;;
28605;SDS011;46498;49.968;7.754;2023-07-31T07:05:50;7.65;;;2.65;;
28605;SDS011;46498;49.968;7.754;2023-07-31T07:10:51;7.68;;;2.97;;
28605;SDS011;46498;49.968;7.754;2023-07-31T07:15:52;10.35;;;2.80;;
28605;SDS011;46498;49.968;7.754;2023-07-31T07:20:53;7.80;;;2.95;;
28605;SDS011;46498;49.968;7.754;2023-07-31T07:25:55;7.13;;;2.90;;
28605;SDS011;46498;49.968;7.754;2023-07-31T07:30:56;8.00;;;2.65;;
28605;SDS011;46498;49.968;7.754;2023-07-31T07:36:01;10.63;;;3.15;;
28605;SDS011;46498;49.968;7.754;2023-07-31T07:41:02;10.45;;;3.45;;
28605;SDS011;46498;49.968;7.754;2023-07-31T07:46:03;6.20;;;2.80;;
28605;SDS011;46498;49.968;7.754;2023-07-31T07:51:04;10.45;;;3.20;;
28605;SDS011;46498;49.968;7.754;2023-07-31T07:56:05;10.82;;;3.03;;
28605;SDS011;46498;49.968;7.754;2023-07-31T08:01:06;7.80;;;2.80;;
28605;SDS011;46498;49.968;7.754;2023-07-31T08:06:08;10.50;;;3.37;;
28605;SDS011;46498;49.968;7.754;2023-07-31T08:11:10;7.00;;;2.87;;
28605;SDS011;46498;49.968;7.754;2023-07-31T08:16:10;6.22;;;2.53;;
28605;SDS011;46498;49.968;7.754;2023-07-31T08:21:11;7.03;;;2.60;;
28605;SDS011;46498;49.968;7.754;2023-07-31T08:26:18;11.27;;;2.83;;
28605;SDS011;46498;49.968;7.754;2023-07-31T08:31:21;8.65;;;2.30;;
28605;SDS011;46498;49.968;7.754;2023-07-31T08:36:22;6.43;;;2.97;;
28605;SDS011;46498;49.968;7.754;2023-07-31T08:41:23;10.02;;;2.90;;
28605;SDS011;46498;49.968;7.754;2023-07-31T08:46:23;9.07;;;3.53;;
28605;SDS011;46498;49.968;7.754;2023-07-31T08:51:25;8.48;;;3.05;;
28605;SDS011;46498;49.968;7.754;2023-07-31T08:56:27;10.18;;;3.47;;
28605;SDS011;46498;49.968;7.754;2023-07-31T09:01:29;9.53;;;3.93;;
28605;SDS011;46498;49.968;7.754;2023-07-31T09:06:32;8.48;;;3.37;;
28605;SDS011;46498;49.968;7.754;2023-07-31T09:11:34;11.43;;;3.05;;
28605;SDS011;46498;49.968;7.754;2023-07-31T09:16:35;9.80;;;2.90;;
28605;SDS011;46498;49.968;7.754;2023-07-31T09:21:46;7.60;;;3.35;;
28605;SDS011;46498;49.968;7.754;2023-07-31T09:26:49;11.20;;;3.42;;
28605;SDS011;46498;49.968;7.754;2023-07-31T09:31:54;6.40;;;3.10;;
28605;SDS011;46498;49.968;7.754;2023-07-31T09:36:57;11.77;;;3.40;;
28605;SDS011;46498;49.968;7.754;2023-07-31T09:42:01;8.05;;;3.12;;
28605;SDS011;46498;49.968;7.754;2023-07-31T09:47:02;10.50;;;3.45;;
28605;SDS011;46498;49.968;7.754;2023-07-31T09:52:03;5.97;;;2.80;;
28605;SDS011;46498;49.968;7.754;2023-07-31T09:57:12;7.62;;;3.00;;
28605;SDS011;46498;49.968;7.754;2023-07-31T10:02:20;7.15;;;3.05;;
28605;SDS011;46498;49.968;7.754;2023-07-31T10:07:22;13.50;;;3.60;;
28605;SDS011;46498;49.968;7.754;2023-07-31T10:12:26;8.57;;;3.35;;
28605;SDS011;46498;49.968;7.754;2023-07-31T10:17:31;10.18;;;3.10;;
28605;SDS011;46498;49.968;7.754;2023-07-31T10:22:34;6.32;;;2.90;;
28605;SDS011;46498;49.968;7.754;2023-07-31T10:27:36;7.45;;;2.83;;
28605;SDS011;46498;49.968;7.754;2023-07-31T10:32:39;6.80;;;3.12;;
28605;SDS011;46498;49.968;7.754;2023-07-31T10:37:42;7.53;;;2.95;;
28605;SDS011;46498;49.968;7.754;2023-07-31T10:42:51;7.43;;;3.10;;
28605;SDS011;46498;49.968;7.754;2023-07-31T10:53:23;8.73;;;2.85;;
28605;SDS011;46498;49.968;7.754;2023-07-31T10:58:26;6.57;;;2.83;;
28605;SDS011;46498;49.968;7.754;2023-07-31T11:03:40;7.32;;;3.72;;
28605;SDS011;46498;49.968;7.754;2023-07-31T11:08:50;8.25;;;3.15;;
28605;SDS011;46498;49.968;7.754;2023-07-31T11:13:52;7.00;;;3.15;;
28605;SDS011;46498;49.968;7.754;2023-07-31T11:18:54;5.75;;;2.87;;
28605;SDS011;46498;49.968;7.754;2023-07-31T11:23:56;7.83;;;3.00;;
28605;SDS011;46498;49.968;7.754;2023-07-31T11:29:01;5.80;;;2.95;;
28605;SDS011;46498;49.968;7.754;2023-07-31T11:34:05;8.02;;;2.72;;
28605;SDS011;46498;49.968;7.754;2023-07-31T11:39:10;9.88;;;3.00;;
28605;SDS011;46498;49.968;7.754;2023-07-31T11:44:11;8.73;;;2.90;;
28605;SDS011;46498;49.968;7.754;2023-07-31T11:49:28;7.72;;;3.10;;
28605;SDS011;46498;49.968;7.754;2023-07-31T11:54:30;7.15;;;3.17;;
28605;SDS011;46498;49.968;7.754;2023-07-31T11:59:31;7.28;;;3.00;;
28605;SDS011;46498;49.968;7.754;2023-07-31T12:04:32;7.57;;;2.53;;
28605;SDS011;46498;49.968;7.754;2023-07-31T12:09:33;7.57;;;2.95;;
28605;SDS011;46498;49.968;7.754;2023-07-31T12:14:34;6.18;;;2.95;;
28605;SDS011;46498;49.968;7.754;2023-07-31T12:19:35;8.40;;;2.47;;
28605;SDS011;46498;49.968;7.754;2023-07-31T12:29:41;6.15;;;2.55;;
28605;SDS011;46498;49.968;7.754;2023-07-31T12:34:44;6.20;;;2.35;;
28605;SDS011;46498;49.968;7.754;2023-07-31T12:39:45;6.53;;;2.60;;
28605;SDS011;46498;49.968;7.754;2023-07-31T12:44:46;3.08;;;2.10;;
28605;SDS011;46498;49.968;7.754;2023-07-31T12:49:47;4.55;;;2.30;;
28605;SDS011;46498;49.968;7.754;2023-07-31T12:54:48;5.25;;;2.22;;
28605;SDS011;46498;49.968;7.754;2023-07-31T12:59:49;5.00;;;2.22;;
28605;SDS011;46498;49.968;7.754;2023-07-31T13:04:49;5.85;;;2.25;;
28605;SDS011;46498;49.968;7.754;2023-07-31T13:09:51;5.37;;;2.47;;
28605;SDS011;46498;49.968;7.754;2023-07-31T13:14:52;4.57;;;2.20;;
28605;SDS011;46498;49.968;7.754;2023-07-31T13:19:54;3.95;;;2.00;;
28605;SDS011;46498;49.968;7.754;2023-07-31T13:24:55;5.53;;;2.10;;
28605;SDS011;46498;49.968;7.754;2023-07-31T13:29:56;4.72;;;1.98;;
28605;SDS011;46498;49.968;7.754;2023-07-31T13:34:57;5.62;;;2.35;;
28605;SDS011;46498;49.968;7.754;2023-07-31T13:39:58;5.35;;;2.15;;
28605;SDS011;46498;49.968;7.754;2023-07-31T13:44:58;5.15;;;2.33;;
28605;SDS011;46498;49.968;7.754;2023-07-31T13:50:00;9.07;;;4.30;;
28605;SDS011;46498;49.968;7.754;2023-07-31T13:55:01;4.95;;;2.50;;
28605;SDS011;46498;49.968;7.754;2023-07-31T14:00:05;7.70;;;2.30;;
28605;SDS011;46498;49.968;7.754;2023-07-31T14:05:07;3.55;;;1.83;;
28605;SDS011;46498;49.968;7.754;2023-07-31T14:10:10;5.65;;;2.35;;
28605;SDS011;46498;49.968;7.754;2023-07-31T14:15:10;6.60;;;2.30;;
28605;SDS011;46498;49.968;7.754;2023-07-31T14:20:12;7.85;;;2.28;;
28605;SDS011;46498;49.968;7.754;2023-07-31T14:25:13;5.95;;;2.08;;
28605;SDS011;46498;49.968;7.754;2023-07-31T14:30:14;4.75;;;1.70;;
28605;SDS011;46498;49.968;7.754;2023-07-31T14:35:15;4.57;;;1.50;;
28605;SDS011;46498;49.968;7.754;2023-07-31T14:40:16;3.92;;;1.23;;
28605;SDS011;46498;49.968;7.754;2023-07-31T14:45:17;3.60;;;1.42;;
28605;SDS011;46498;49.968;7.754;2023-07-31T14:50:19;4.12;;;1.70;;
28605;SDS011;46498;49.968;7.754;2023-07-31T14:55:21;3.12;;;1.60;;
28605;SDS011;46498;49.968;7.754;2023-07-31T15:00:22;2.92;;;1.33;;
28605;SDS011;46498;49.968;7.754;2023-07-31T15:05:24;3.57;;;1.53;;
28605;SDS011;46498;49.968;7.754;2023-07-31T15:10:25;5.93;;;1.77;;
28605;SDS011;46498;49.968;7.754;2023-07-31T15:15:26;3.83;;;1.87;;
28605;SDS011;46498;49.968;7.754;2023-07-31T15:20:28;5.62;;;1.98;;
28605;SDS011;46498;49.968;7.754;2023-07-31T15:25:29;5.18;;;2.00;;
28605;SDS011;46498;49.968;7.754;2023-07-31T15:30:30;5.07;;;1.75;;
28605;SDS011;46498;49.968;7.754;2023-07-31T15:35:31;3.67;;;2.00;;
28605;SDS011;46498;49.968;7.754;2023-07-31T15:40:32;5.25;;;2.08;;
28605;SDS011;46498;49.968;7.754;2023-07-31T15:45:33;5.45;;;2.15;;
28605;SDS011;46498;49.968;7.754;2023-07-31T15:50:34;4.25;;;1.55;;
28605;SDS011;46498;49.968;7.754;2023-07-31T15:55:34;6.03;;;2.42;;
28605;SDS011;46498;49.968;7.754;2023-07-31T16:00:35;4.90;;;2.45;;
28605;SDS011;46498;49.968;7.754;2023-07-31T16:05:36;7.47;;;2.97;;
28605;SDS011;46498;49.968;7.754;2023-07-31T16:10:37;4.78;;;2.67;;
28605;SDS011;46498;49.968;7.754;2023-07-31T16:15:38;5.05;;;2.30;;
28605;SDS011;46498;49.968;7.754;2023-07-31T16:20:39;7.57;;;3.10;;
28605;SDS011;46498;49.968;7.754;2023-07-31T16:25:40;5.97;;;3.00;;
28605;SDS011;46498;49.968;7.754;2023-07-31T16:30:41;6.72;;;2.60;;
28605;SDS011;46498;49.968;7.754;2023-07-31T16:35:42;7.60;;;3.05;;
28605;SDS011;46498;49.968;7.754;2023-07-31T16:40:43;9.10;;;3.00;;
28605;SDS011;46498;49.968;7.754;2023-07-31T16:45:44;7.50;;;2.70;;
28605;SDS011;46498;49.968;7.754;2023-07-31T16:50:46;7.75;;;3.12;;
28605;SDS011;46498;49.968;7.754;2023-07-31T16:55:47;7.75;;;3.22;;
28605;SDS011;46498;49.968;7.754;2023-07-31T17:00:48;8.38;;;3.17;;
28605;SDS011;46498;49.968;7.754;2023-07-31T17:05:49;8.18;;;3.40;;
28605;SDS011;46498;49.968;7.754;2023-07-31T17:10:50;6.80;;;3.37;;
28605;SDS011;46498;49.968;7.754;2023-07-31T17:15:51;12.00;;;3.70;;
28605;SDS011;46498;49.968;7.754;2023-07-31T17:20:51;9.65;;;3.83;;
28605;SDS011;46498;49.968;7.754;2023-07-31T17:25:52;6.62;;;3.20;;
28605;SDS011;46498;49.968;7.754;2023-07-31T17:30:53;9.77;;;4.22;;
28605;SDS011;46498;49.968;7.754;2023-07-31T17:35:54;11.75;;;3.40;;
28605;SDS011;46498;49.968;7.754;2023-07-31T17:40:55;9.95;;;3.45;;
28605;SDS011;46498;49.968;7.754;2023-07-31T17:45:56;8.13;;;3.42;;
28605;SDS011;46498;49.968;7.754;2023-07-31T17:50:56;6.78;;;3.28;;
28605;SDS011;46498;49.968;7.754;2023-07-31T17:55:57;11.43;;;3.55;;
28605;SDS011;46498;49.968;7.754;2023-07-31T18:00:58;9.73;;;4.35;;
28605;SDS011;46498;49.968;7.754;2023-07-31T18:05:59;13.07;;;4.37;;
28605;SDS011;46498;49.968;7.754;2023-07-31T18:11:00;11.05;;;4.10;;
28605;SDS011;46498;49.968;7.754;2023-07-31T18:16:03;7.78;;;3.70;;
28605;SDS011;46498;49.968;7.754;2023-07-31T18:21:06;12.50;;;5.10;;
28605;SDS011;46498;49.968;7.754;2023-07-31T18:26:06;7.50;;;4.12;;
28605;SDS011;46498;49.968;7.754;2023-07-31T18:31:07;10.82;;;3.85;;
28605;SDS011;46498;49.968;7.754;2023-07-31T18:36:08;7.95;;;3.22;;
28605;SDS011;46498;49.968;7.754;2023-07-31T18:41:09;6.93;;;3.28;;
28605;SDS011;46498;49.968;7.754;2023-07-31T18:46:11;7.30;;;3.40;;
28605;SDS011;46498;49.968;7.754;2023-07-31T18:51:13;8.53;;;3.60;;
28605;SDS011;46498;49.968;7.754;2023-07-31T18:56:14;9.15;;;3.75;;
28605;SDS011;46498;49.968;7.754;2023-07-31T19:01:15;7.72;;;3.55;;
28605;SDS011;46498;49.968;7.754;2023-07-31T19:06:16;9.60;;;4.20;;
28605;SDS011;46498;49.968;7.754;2023-07-31T19:11:17;6.25;;;3.55;;
28605;SDS011;46498;49.968;7.754;2023-07-31T19:16:32;8.57;;;4.35;;
28605;SDS011;46498;49.968;7.754;2023-07-31T19:21:33;10.55;;;3.80;;
28605;SDS011;46498;49.968;7.754;2023-07-31T19:26:34;10.63;;;4.35;;
28605;SDS011;46498;49.968;7.754;2023-07-31T19:31:35;8.27;;;3.90;;
28605;SDS011;46498;49.968;7.754;2023-07-31T19:36:36;10.60;;;4.07;;
28605;SDS011;46498;49.968;7.754;2023-07-31T19:41:37;7.80;;;3.85;;
28605;SDS011;46498;49.968;7.754;2023-07-31T19:46:40;6.70;;;3.95;;
28605;SDS011;46498;49.968;7.754;2023-07-31T19:51:41;11.93;;;5.07;;
28605;SDS011;46498;49.968;7.754;2023-07-31T19:56:42;8.55;;;4.62;;
28605;SDS011;46498;49.968;7.754;2023-07-31T20:01:43;11.30;;;4.47;;
28605;SDS011;46498;49.968;7.754;2023-07-31T20:06:44;10.32;;;4.55;;
28605;SDS011;46498;49.968;7.754;2023-07-31T20:11:45;12.95;;;5.22;;
28605;SDS011;46498;49.968;7.754;2023-07-31T20:16:46;10.95;;;4.95;;
28605;SDS011;46498;49.968;7.754;2023-07-31T20:21:47;13.52;;;5.05;;
28605;SDS011;46498;49.968;7.754;2023-07-31T20:26:48;11.60;;;5.00;;
28605;SDS011;46498;49.968;7.754;2023-07-31T20:31:49;11.35;;;3.67;;
28605;SDS011;46498;49.968;7.754;2023-07-31T20:36:50;14.10;;;4.68;;
28605;SDS011;46498;49.968;7.754;2023-07-31T20:41:50;11.57;;;4.10;;
28605;SDS011;46498;49.968;7.754;2023-07-31T20:46:52;8.35;;;3.83;;
28605;SDS011;46498;49.968;7.754;2023-07-31T20:51:53;9.93;;;4.03;;
28605;SDS011;46498;49.968;7.754;2023-07-31T20:56:54;6.25;;;3.70;;
28605;SDS011;46498;49.968;7.754;2023-07-31T21:01:57;8.52;;;3.62;;
28605;SDS011;46498;49.968;7.754;2023-07-31T21:06:58;5.30;;;3.08;;
28605;SDS011;46498;49.968;7.754;2023-07-31T21:11:59;7.97;;;3.55;;
28605;SDS011;46498;49.968;7.754;2023-07-31T21:17:00;11.12;;;4.35;;
28605;SDS011;46498;49.968;7.754;2023-07-31T21:22:01;7.15;;;3.78;;
28605;SDS011;46498;49.968;7.754;2023-07-31T21:27:02;6.82;;;4.03;;
28605;SDS011;46498;49.968;7.754;2023-07-31T21:32:03;9.23;;;4.37;;
28605;SDS011;46498;49.968;7.754;2023-07-31T21:37:05;9.60;;;4.45;;
28605;SDS011;46498;49.968;7.754;2023-07-31T21:42:06;11.73;;;5.32;;
28605;SDS011;46498;49.968;7.754;2023-07-31T21:47:08;8.07;;;4.50;;
28605;SDS011;46498;49.968;7.754;2023-07-31T21:52:09;12.02;;;5.62;;
28605;SDS011;46498;49.968;7.754;2023-07-31T21:57:10;9.93;;;5.53;;
28605;SDS011;46498;49.968;7.754;2023-07-31T22:02:11;10.05;;;5.50;;
28605;SDS011;46498;49.968;7.754;2023-07-31T22:07:12;9.68;;;5.35;;
28605;SDS011;46498;49.968;7.754;2023-07-31T22:12:12;10.95;;;5.00;;
28605;SDS011;46498;49.968;7.754;2023-07-31T22:17:13;11.35;;;5.18;;
28605;SDS011;46498;49.968;7.754;2023-07-31T22:22:14;12.25;;;5.15;;
28605;SDS011;46498;49.968;7.754;2023-07-31T22:27:15;12.02;;;4.85;;
28605;SDS011;46498;49.968;7.754;2023-07-31T22:32:17;12.00;;;5.70;;
28605;SDS011;46498;49.968;7.754;2023-07-31T22:37:17;8.77;;;3.72;;
28605;SDS011;46498;49.968;7.754;2023-07-31T22:42:18;7.57;;;4.07;;
28605;SDS011;46498;49.968;7.754;2023-07-31T22:47:19;8.70;;;4.40;;
28605;SDS011;46498;49.968;7.754;2023-07-31T22:52:20;8.45;;;3.87;;
28605;SDS011;46498;49.968;7.754;2023-07-31T22:57:21;8.57;;;4.72;;
28605;SDS011;46498;49.968;7.754;2023-07-31T23:02:22;10.43;;;4.47;;
28605;SDS011;46498;49.968;7.754;2023-07-31T23:07:22;10.02;;;4.53;;
28605;SDS011;46498;49.968;7.754;2023-07-31T23:12:23;17.80;;;4.93;;
28605;SDS011;46498;49.968;7.754;2023-07-31T23:17:24;9.48;;;4.20;;
28605;SDS011;46498;49.968;7.754;2023-07-31T23:22:25;6.53;;;3.75;;
28605;SDS011;46498;49.968;7.754;2023-07-31T23:27:26;6.10;;;3.60;;
28605;SDS011;46498;49.968;7.754;2023-07-31T23:32:27;10.02;;;3.95;;
28605;SDS011;46498;49.968;7.754;2023-07-31T23:37:28;8.27;;;4.43;;
28605;SDS011;46498;49.968;7.754;2023-07-31T23:42:29;7.03;;;3.87;;
28605;SDS011;46498;49.968;7.754;2023-07-31T23:47:31;6.57;;;3.83;;
28605;SDS011;46498;49.968;7.754;2023-07-31T23:52:32;7.93;;;3.92;;
28605;SDS011;46498;49.968;7.754;2023-07-31T23:57:33;11.05;;;3.92;;
